sensor_id;sensor_type;location;lat;lon;timestamp;pressure;altitude;pressure_sealevel;temperature;humidity
34034;BME280;63481;52.588;22.472;2023-06-22T00:00:22;100296.00;;;19.87;88.90
34034;BME280;63481;52.588;22.472;2023-06-22T00:01:17;100297.15;;;19.88;89.56
34034;BME280;63481;52.588;22.472;2023-06-22T00:01:50;100295.36;;;19.91;88.73
34034;BME280;63481;52.588;22.472;2023-06-22T00:02:22;100293.25;;;19.89;88.74
34034;BME280;63481;52.588;22.472;2023-06-22T00:02:54;100293.84;;;19.90;89.04
34034;BME280;63481;52.588;22.472;2023-06-22T00:03:26;100291.95;;;19.92;88.25
34034;BME280;63481;52.588;22.472;2023-06-22T00:03:59;100290.11;;;19.90;88.16
34034;BME280;63481;52.588;22.472;2023-06-22T00:04:31;100286.64;;;19.89;88.01
34034;BME280;63481;52.588;22.472;2023-06-22T00:05:03;100288.30;;;19.86;88.52
34034;BME280;63481;52.588;22.472;2023-06-22T00:05:35;100287.62;;;19.87;88.38
34034;BME280;63481;52.588;22.472;2023-06-22T00:06:07;100283.68;;;19.94;87.97
34034;BME280;63481;52.588;22.472;2023-06-22T00:06:39;100285.98;;;19.97;87.94
34034;BME280;63481;52.588;22.472;2023-06-22T00:07:12;100287.27;;;19.97;87.74
34034;BME280;63481;52.588;22.472;2023-06-22T00:07:44;100286.73;;;20.01;87.84
34034;BME280;63481;52.588;22.472;2023-06-22T00:08:16;100288.36;;;20.02;87.33
34034;BME280;63481;52.588;22.472;2023-06-22T00:08:49;100290.80;;;20.02;87.21
34034;BME280;63481;52.588;22.472;2023-06-22T00:09:21;100289.66;;;20.03;86.96
34034;BME280;63481;52.588;22.472;2023-06-22T00:09:53;100291.45;;;20.03;87.63
34034;BME280;63481;52.588;22.472;2023-06-22T00:10:25;100292.10;;;20.03;87.11
34034;BME280;63481;52.588;22.472;2023-06-22T00:10:57;100294.00;;;20.05;87.56
34034;BME280;63481;52.588;22.472;2023-06-22T00:11:29;100299.56;;;20.03;87.61
34034;BME280;63481;52.588;22.472;2023-06-22T00:12:03;100302.16;;;19.96;88.47
34034;BME280;63481;52.588;22.472;2023-06-22T00:12:35;100300.09;;;19.82;89.64
34034;BME280;63481;52.588;22.472;2023-06-22T00:13:08;100301.83;;;19.66;91.42
34034;BME280;63481;52.588;22.472;2023-06-22T00:13:40;100298.98;;;19.62;92.47
34034;BME280;63481;52.588;22.472;2023-06-22T00:14:12;100304.70;;;19.57;92.72
34034;BME280;63481;52.588;22.472;2023-06-22T00:14:47;100303.30;;;19.46;92.58
34034;BME280;63481;52.588;22.472;2023-06-22T00:15:19;100301.53;;;19.34;93.36
34034;BME280;63481;52.588;22.472;2023-06-22T00:15:51;100304.07;;;19.23;94.13
34034;BME280;63481;52.588;22.472;2023-06-22T00:16:23;100300.33;;;19.14;95.10
34034;BME280;63481;52.588;22.472;2023-06-22T00:16:56;100299.81;;;19.01;95.05
34034;BME280;63481;52.588;22.472;2023-06-22T00:17:29;100299.70;;;18.94;94.65
34034;BME280;63481;52.588;22.472;2023-06-22T00:18:02;100295.13;;;18.89;94.96
34034;BME280;63481;52.588;22.472;2023-06-22T00:18:34;100293.52;;;18.83;96.61
34034;BME280;63481;52.588;22.472;2023-06-22T00:19:06;100290.27;;;18.75;97.23
34034;BME280;63481;52.588;22.472;2023-06-22T00:19:38;100289.20;;;18.69;97.37
34034;BME280;63481;52.588;22.472;2023-06-22T00:20:12;100288.71;;;18.63;97.54
34034;BME280;63481;52.588;22.472;2023-06-22T00:20:46;100287.02;;;18.62;97.96
34034;BME280;63481;52.588;22.472;2023-06-22T00:21:18;100286.20;;;18.58;97.89
34034;BME280;63481;52.588;22.472;2023-06-22T00:21:52;100285.56;;;18.54;97.44
34034;BME280;63481;52.588;22.472;2023-06-22T00:22:24;100283.97;;;18.51;96.77
34034;BME280;63481;52.588;22.472;2023-06-22T00:23:00;100285.02;;;18.53;96.17
34034;BME280;63481;52.588;22.472;2023-06-22T00:23:32;100287.51;;;18.54;96.19
34034;BME280;63481;52.588;22.472;2023-06-22T00:24:06;100283.98;;;18.57;96.21
34034;BME280;63481;52.588;22.472;2023-06-22T00:24:38;100285.69;;;18.57;95.92
34034;BME280;63481;52.588;22.472;2023-06-22T00:25:13;100281.73;;;18.56;96.07
34034;BME280;63481;52.588;22.472;2023-06-22T00:25:45;100287.64;;;18.57;95.96
34034;BME280;63481;52.588;22.472;2023-06-22T00:26:18;100285.23;;;18.60;95.28
34034;BME280;63481;52.588;22.472;2023-06-22T00:26:50;100281.38;;;18.59;94.84
34034;BME280;63481;52.588;22.472;2023-06-22T00:27:22;100284.58;;;18.58;94.66
34034;BME280;63481;52.588;22.472;2023-06-22T00:27:54;100282.45;;;18.62;94.01
34034;BME280;63481;52.588;22.472;2023-06-22T00:28:27;100279.83;;;18.66;93.79
34034;BME280;63481;52.588;22.472;2023-06-22T00:28:59;100274.46;;;18.64;94.11
34034;BME280;63481;52.588;22.472;2023-06-22T00:29:31;100274.11;;;18.61;94.66
34034;BME280;63481;52.588;22.472;2023-06-22T00:30:04;100275.90;;;18.62;94.89
34034;BME280;63481;52.588;22.472;2023-06-22T00:30:36;100275.19;;;18.68;94.20
34034;BME280;63481;52.588;22.472;2023-06-22T00:31:08;100272.70;;;18.68;94.37
34034;BME280;63481;52.588;22.472;2023-06-22T00:31:41;100270.80;;;18.67;94.58
34034;BME280;63481;52.588;22.472;2023-06-22T00:32:13;100269.80;;;18.63;95.28
34034;BME280;63481;52.588;22.472;2023-06-22T00:32:45;100273.73;;;18.62;95.19
34034;BME280;63481;52.588;22.472;2023-06-22T00:33:19;100268.95;;;18.63;94.92
34034;BME280;63481;52.588;22.472;2023-06-22T00:33:51;100266.99;;;18.63;95.38
34034;BME280;63481;52.588;22.472;2023-06-22T00:34:23;100261.97;;;18.62;95.95
34034;BME280;63481;52.588;22.472;2023-06-22T00:34:55;100266.48;;;18.60;96.59
34034;BME280;63481;52.588;22.472;2023-06-22T00:35:27;100265.83;;;18.56;96.71
34034;BME280;63481;52.588;22.472;2023-06-22T00:36:02;100267.73;;;18.54;97.06
34034;BME280;63481;52.588;22.472;2023-06-22T00:36:36;100267.81;;;18.50;97.16
34034;BME280;63481;52.588;22.472;2023-06-22T00:37:09;100266.33;;;18.49;97.11
34034;BME280;63481;52.588;22.472;2023-06-22T00:37:42;100266.10;;;18.48;97.27
34034;BME280;63481;52.588;22.472;2023-06-22T00:38:14;100267.98;;;18.51;97.09
34034;BME280;63481;52.588;22.472;2023-06-22T00:38:47;100268.36;;;18.52;97.04
34034;BME280;63481;52.588;22.472;2023-06-22T00:39:22;100272.14;;;18.52;97.03
34034;BME280;63481;52.588;22.472;2023-06-22T00:39:56;100267.48;;;18.52;96.79
34034;BME280;63481;52.588;22.472;2023-06-22T00:40:29;100268.48;;;18.54;96.74
34034;BME280;63481;52.588;22.472;2023-06-22T00:41:03;100268.33;;;18.55;96.87
34034;BME280;63481;52.588;22.472;2023-06-22T00:41:35;100268.24;;;18.56;96.75
34034;BME280;63481;52.588;22.472;2023-06-22T00:42:07;100266.78;;;18.56;97.02
34034;BME280;63481;52.588;22.472;2023-06-22T00:42:40;100268.49;;;18.54;96.60
34034;BME280;63481;52.588;22.472;2023-06-22T00:43:13;100267.27;;;18.57;96.46
34034;BME280;63481;52.588;22.472;2023-06-22T00:43:45;100265.55;;;18.58;96.68
34034;BME280;63481;52.588;22.472;2023-06-22T00:44:17;100267.95;;;18.61;96.34
34034;BME280;63481;52.588;22.472;2023-06-22T00:44:50;100263.58;;;18.62;96.25
34034;BME280;63481;52.588;22.472;2023-06-22T00:45:23;100266.34;;;18.62;96.37
34034;BME280;63481;52.588;22.472;2023-06-22T00:45:56;100263.73;;;18.62;96.19
34034;BME280;63481;52.588;22.472;2023-06-22T00:46:28;100264.68;;;18.64;95.83
34034;BME280;63481;52.588;22.472;2023-06-22T00:47:01;100260.80;;;18.65;95.69
34034;BME280;63481;52.588;22.472;2023-06-22T00:47:35;100260.66;;;18.68;95.51
34034;BME280;63481;52.588;22.472;2023-06-22T00:48:09;100261.36;;;18.66;95.65
34034;BME280;63481;52.588;22.472;2023-06-22T00:48:42;100257.63;;;18.67;95.98
34034;BME280;63481;52.588;22.472;2023-06-22T00:49:16;100254.25;;;18.65;95.85
34034;BME280;63481;52.588;22.472;2023-06-22T00:49:49;100255.81;;;18.63;96.10
34034;BME280;63481;52.588;22.472;2023-06-22T00:50:25;100256.16;;;18.66;96.03
34034;BME280;63481;52.588;22.472;2023-06-22T00:50:57;100253.33;;;18.69;95.46
34034;BME280;63481;52.588;22.472;2023-06-22T00:51:30;100252.59;;;18.73;95.90
34034;BME280;63481;52.588;22.472;2023-06-22T00:52:02;100252.84;;;18.71;96.03
34034;BME280;63481;52.588;22.472;2023-06-22T00:52:34;100255.02;;;18.68;96.17
34034;BME280;63481;52.588;22.472;2023-06-22T00:53:08;100255.95;;;18.67;96.60
34034;BME280;63481;52.588;22.472;2023-06-22T00:53:41;100257.40;;;18.66;96.75
34034;BME280;63481;52.588;22.472;2023-06-22T00:54:16;100254.61;;;18.68;96.69
34034;BME280;63481;52.588;22.472;2023-06-22T00:54:48;100260.80;;;18.67;96.87
34034;BME280;63481;52.588;22.472;2023-06-22T00:55:21;100252.81;;;18.66;96.81
34034;BME280;63481;52.588;22.472;2023-06-22T00:55:56;100253.14;;;18.67;96.88
34034;BME280;63481;52.588;22.472;2023-06-22T00:56:32;100252.92;;;18.66;97.07
34034;BME280;63481;52.588;22.472;2023-06-22T00:57:07;100258.20;;;18.66;97.00
34034;BME280;63481;52.588;22.472;2023-06-22T00:57:42;100256.52;;;18.64;97.18
34034;BME280;63481;52.588;22.472;2023-06-22T00:58:15;100251.64;;;18.62;97.22
34034;BME280;63481;52.588;22.472;2023-06-22T00:58:50;100254.16;;;18.60;97.20
34034;BME280;63481;52.588;22.472;2023-06-22T00:59:28;100251.63;;;18.62;97.25
34034;BME280;63481;52.588;22.472;2023-06-22T01:00:00;100252.48;;;18.66;97.25
34034;BME280;63481;52.588;22.472;2023-06-22T01:00:32;100251.77;;;18.66;97.14
34034;BME280;63481;52.588;22.472;2023-06-22T01:01:04;100251.11;;;18.62;97.28
34034;BME280;63481;52.588;22.472;2023-06-22T01:01:37;100254.64;;;18.58;97.45
34034;BME280;63481;52.588;22.472;2023-06-22T01:02:13;100250.09;;;18.57;97.67
34034;BME280;63481;52.588;22.472;2023-06-22T01:02:46;100247.39;;;18.56;97.70
34034;BME280;63481;52.588;22.472;2023-06-22T01:03:19;100248.09;;;18.58;97.78
34034;BME280;63481;52.588;22.472;2023-06-22T01:03:52;100249.52;;;18.59;97.99
34034;BME280;63481;52.588;22.472;2023-06-22T01:04:35;100248.84;;;18.55;97.76
34034;BME280;63481;52.588;22.472;2023-06-22T01:05:08;100248.83;;;18.53;97.93
34034;BME280;63481;52.588;22.472;2023-06-22T01:05:41;100246.78;;;18.55;97.99
34034;BME280;63481;52.588;22.472;2023-06-22T01:06:17;100245.13;;;18.56;98.12
34034;BME280;63481;52.588;22.472;2023-06-22T01:07:00;100242.50;;;18.54;98.12
34034;BME280;63481;52.588;22.472;2023-06-22T01:09:06;100243.73;;;18.52;98.50
34034;BME280;63481;52.588;22.472;2023-06-22T01:09:54;100244.54;;;18.50;98.64
34034;BME280;63481;52.588;22.472;2023-06-22T01:11:16;100243.27;;;18.47;98.77
34034;BME280;63481;52.588;22.472;2023-06-22T01:11:55;100242.82;;;18.48;98.84
34034;BME280;63481;52.588;22.472;2023-06-22T01:12:34;100242.40;;;18.49;98.68
34034;BME280;63481;52.588;22.472;2023-06-22T01:13:18;100244.61;;;18.48;98.64
34034;BME280;63481;52.588;22.472;2023-06-22T01:14:10;100243.70;;;18.53;98.70
34034;BME280;63481;52.588;22.472;2023-06-22T01:14:52;100240.88;;;18.53;98.89
34034;BME280;63481;52.588;22.472;2023-06-22T01:15:36;100242.26;;;18.50;98.69
34034;BME280;63481;52.588;22.472;2023-06-22T01:16:18;100241.60;;;18.49;98.81
34034;BME280;63481;52.588;22.472;2023-06-22T01:16:53;100243.55;;;18.49;99.01
34034;BME280;63481;52.588;22.472;2023-06-22T01:17:29;100244.53;;;18.51;99.11
34034;BME280;63481;52.588;22.472;2023-06-22T01:18:04;100242.67;;;18.55;98.93
34034;BME280;63481;52.588;22.472;2023-06-22T01:18:40;100245.71;;;18.58;98.91
34034;BME280;63481;52.588;22.472;2023-06-22T01:19:25;100245.37;;;18.61;98.64
34034;BME280;63481;52.588;22.472;2023-06-22T01:20:02;100241.21;;;18.62;98.51
34034;BME280;63481;52.588;22.472;2023-06-22T01:20:37;100239.69;;;18.67;98.18
34034;BME280;63481;52.588;22.472;2023-06-22T01:21:14;100238.10;;;18.72;97.68
34034;BME280;63481;52.588;22.472;2023-06-22T01:21:49;100235.11;;;18.77;97.53
34034;BME280;63481;52.588;22.472;2023-06-22T01:22:25;100237.91;;;18.82;97.17
34034;BME280;63481;52.588;22.472;2023-06-22T01:25:18;100240.02;;;18.85;96.17
34034;BME280;63481;52.588;22.472;2023-06-22T01:26:08;100241.35;;;18.88;96.21
34034;BME280;63481;52.588;22.472;2023-06-22T01:26:57;100241.77;;;18.89;96.25
34034;BME280;63481;52.588;22.472;2023-06-22T01:28:24;100241.98;;;18.87;96.44
34034;BME280;63481;52.588;22.472;2023-06-22T01:28:58;100244.67;;;18.94;95.94
34034;BME280;63481;52.588;22.472;2023-06-22T01:29:37;100240.59;;;18.96;95.84
34034;BME280;63481;52.588;22.472;2023-06-22T01:30:13;100237.49;;;18.97;95.94
34034;BME280;63481;52.588;22.472;2023-06-22T01:30:51;100238.66;;;18.99;95.18
34034;BME280;63481;52.588;22.472;2023-06-22T01:31:35;100238.94;;;18.99;95.33
34034;BME280;63481;52.588;22.472;2023-06-22T01:32:07;100236.34;;;19.01;95.26
34034;BME280;63481;52.588;22.472;2023-06-22T01:32:41;100235.35;;;18.97;95.33
34034;BME280;63481;52.588;22.472;2023-06-22T01:33:14;100236.52;;;18.93;95.69
34034;BME280;63481;52.588;22.472;2023-06-22T01:33:51;100238.29;;;18.93;95.61
34034;BME280;63481;52.588;22.472;2023-06-22T01:34:24;100236.52;;;18.93;95.00
34034;BME280;63481;52.588;22.472;2023-06-22T01:34:58;100235.75;;;18.93;95.33
34034;BME280;63481;52.588;22.472;2023-06-22T01:35:32;100236.98;;;18.93;95.08
34034;BME280;63481;52.588;22.472;2023-06-22T01:36:06;100233.71;;;18.97;95.14
34034;BME280;63481;52.588;22.472;2023-06-22T01:36:39;100230.60;;;18.98;95.00
34034;BME280;63481;52.588;22.472;2023-06-22T01:37:13;100233.37;;;19.01;95.09
34034;BME280;63481;52.588;22.472;2023-06-22T01:37:46;100232.73;;;19.03;94.84
34034;BME280;63481;52.588;22.472;2023-06-22T01:38:22;100232.41;;;19.05;94.85
34034;BME280;63481;52.588;22.472;2023-06-22T01:38:58;100233.13;;;19.05;94.41
34034;BME280;63481;52.588;22.472;2023-06-22T01:39:31;100233.77;;;19.05;94.11
34034;BME280;63481;52.588;22.472;2023-06-22T01:40:05;100229.83;;;19.09;94.05
34034;BME280;63481;52.588;22.472;2023-06-22T01:40:38;100232.00;;;19.10;94.29
34034;BME280;63481;52.588;22.472;2023-06-22T01:41:11;100229.63;;;19.10;94.08
34034;BME280;63481;52.588;22.472;2023-06-22T01:41:44;100229.08;;;19.07;94.19
34034;BME280;63481;52.588;22.472;2023-06-22T01:42:17;100227.17;;;19.05;94.51
34034;BME280;63481;52.588;22.472;2023-06-22T01:42:50;100229.52;;;19.07;94.48
34034;BME280;63481;52.588;22.472;2023-06-22T01:43:24;100227.99;;;19.09;94.28
34034;BME280;63481;52.588;22.472;2023-06-22T01:43:59;100231.35;;;19.09;94.30
34034;BME280;63481;52.588;22.472;2023-06-22T01:44:33;100229.08;;;19.08;94.15
34034;BME280;63481;52.588;22.472;2023-06-22T01:45:07;100230.91;;;19.05;94.29
34034;BME280;63481;52.588;22.472;2023-06-22T01:45:39;100231.50;;;19.05;94.46
34034;BME280;63481;52.588;22.472;2023-06-22T01:46:11;100231.81;;;19.03;94.79
34034;BME280;63481;52.588;22.472;2023-06-22T01:46:45;100235.02;;;19.04;94.62
34034;BME280;63481;52.588;22.472;2023-06-22T01:47:23;100231.39;;;19.06;94.62
34034;BME280;63481;52.588;22.472;2023-06-22T01:47:56;100230.22;;;19.07;93.98
34034;BME280;63481;52.588;22.472;2023-06-22T01:48:30;100231.73;;;19.09;93.91
34034;BME280;63481;52.588;22.472;2023-06-22T01:49:04;100232.72;;;19.10;92.90
34034;BME280;63481;52.588;22.472;2023-06-22T01:49:37;100232.55;;;19.20;91.53
34034;BME280;63481;52.588;22.472;2023-06-22T01:50:12;100232.91;;;19.28;91.14
34034;BME280;63481;52.588;22.472;2023-06-22T01:50:44;100233.41;;;19.33;91.15
34034;BME280;63481;52.588;22.472;2023-06-22T01:51:16;100230.23;;;19.39;90.87
34034;BME280;63481;52.588;22.472;2023-06-22T01:51:49;100231.42;;;19.38;91.21
34034;BME280;63481;52.588;22.472;2023-06-22T01:52:21;100233.88;;;19.35;91.90
34034;BME280;63481;52.588;22.472;2023-06-22T01:52:53;100233.46;;;19.31;92.99
34034;BME280;63481;52.588;22.472;2023-06-22T01:53:25;100236.29;;;19.21;92.82
34034;BME280;63481;52.588;22.472;2023-06-22T01:53:57;100237.54;;;19.21;92.74
34034;BME280;63481;52.588;22.472;2023-06-22T01:54:29;100236.77;;;19.22;92.91
34034;BME280;63481;52.588;22.472;2023-06-22T01:55:02;100237.27;;;19.25;93.24
34034;BME280;63481;52.588;22.472;2023-06-22T01:55:34;100238.55;;;19.20;93.28
34034;BME280;63481;52.588;22.472;2023-06-22T01:56:06;100238.23;;;19.20;92.87
34034;BME280;63481;52.588;22.472;2023-06-22T01:56:39;100240.42;;;19.18;93.14
34034;BME280;63481;52.588;22.472;2023-06-22T01:57:11;100236.17;;;19.19;93.12
34034;BME280;63481;52.588;22.472;2023-06-22T01:57:44;100236.83;;;19.21;92.79
34034;BME280;63481;52.588;22.472;2023-06-22T01:58:16;100240.31;;;19.15;93.79
34034;BME280;63481;52.588;22.472;2023-06-22T01:58:59;100243.48;;;19.12;94.38
34034;BME280;63481;52.588;22.472;2023-06-22T01:59:37;100240.95;;;19.04;95.71
34034;BME280;63481;52.588;22.472;2023-06-22T02:00:18;100237.25;;;18.98;96.39
34034;BME280;63481;52.588;22.472;2023-06-22T02:00:59;100239.40;;;18.97;96.31
34034;BME280;63481;52.588;22.472;2023-06-22T02:01:46;100235.52;;;19.01;96.04
34034;BME280;63481;52.588;22.472;2023-06-22T02:02:21;100238.42;;;19.06;95.66
34034;BME280;63481;52.588;22.472;2023-06-22T02:03:01;100237.46;;;19.09;95.37
34034;BME280;63481;52.588;22.472;2023-06-22T02:03:38;100240.17;;;19.09;94.97
34034;BME280;63481;52.588;22.472;2023-06-22T02:04:23;100237.47;;;19.10;94.64
34034;BME280;63481;52.588;22.472;2023-06-22T02:05:05;100238.80;;;19.15;94.65
34034;BME280;63481;52.588;22.472;2023-06-22T02:06:27;100241.27;;;19.12;94.89
34034;BME280;63481;52.588;22.472;2023-06-22T02:06:39;100240.17;;;19.10;94.94
34034;BME280;63481;52.588;22.472;2023-06-22T02:07:17;100239.73;;;19.09;94.93
34034;BME280;63481;52.588;22.472;2023-06-22T02:08:30;100240.50;;;19.11;94.79
34034;BME280;63481;52.588;22.472;2023-06-22T02:08:59;100238.11;;;19.19;94.56
34034;BME280;63481;52.588;22.472;2023-06-22T02:09:34;100239.24;;;19.19;94.74
34034;BME280;63481;52.588;22.472;2023-06-22T02:10:08;100237.24;;;19.19;94.59
34034;BME280;63481;52.588;22.472;2023-06-22T02:10:42;100233.19;;;19.18;94.69
34034;BME280;63481;52.588;22.472;2023-06-22T02:11:16;100233.51;;;19.17;94.98
34034;BME280;63481;52.588;22.472;2023-06-22T02:11:51;100238.18;;;19.20;94.50
34034;BME280;63481;52.588;22.472;2023-06-22T02:12:28;100236.19;;;19.23;94.65
34034;BME280;63481;52.588;22.472;2023-06-22T02:13:06;100237.59;;;19.21;94.99
34034;BME280;63481;52.588;22.472;2023-06-22T02:13:38;100235.33;;;19.14;95.13
34034;BME280;63481;52.588;22.472;2023-06-22T02:14:15;100239.09;;;19.16;95.42
34034;BME280;63481;52.588;22.472;2023-06-22T02:14:48;100239.17;;;19.15;95.60
34034;BME280;63481;52.588;22.472;2023-06-22T02:15:20;100236.00;;;19.17;95.16
34034;BME280;63481;52.588;22.472;2023-06-22T02:15:53;100239.69;;;19.20;95.14
34034;BME280;63481;52.588;22.472;2023-06-22T02:16:26;100238.34;;;19.21;95.02
34034;BME280;63481;52.588;22.472;2023-06-22T02:17:03;100242.49;;;19.20;95.03
34034;BME280;63481;52.588;22.472;2023-06-22T02:17:39;100243.15;;;19.22;95.06
34034;BME280;63481;52.588;22.472;2023-06-22T02:18:17;100246.30;;;19.24;95.22
34034;BME280;63481;52.588;22.472;2023-06-22T02:18:50;100242.44;;;19.18;95.38
34034;BME280;63481;52.588;22.472;2023-06-22T02:19:23;100245.36;;;19.09;95.84
34034;BME280;63481;52.588;22.472;2023-06-22T02:19:56;100247.36;;;19.08;95.94
34034;BME280;63481;52.588;22.472;2023-06-22T02:20:28;100248.18;;;19.10;96.08
34034;BME280;63481;52.588;22.472;2023-06-22T02:21:02;100247.85;;;19.09;96.15
34034;BME280;63481;52.588;22.472;2023-06-22T02:21:34;100246.72;;;19.08;96.18
34034;BME280;63481;52.588;22.472;2023-06-22T02:22:07;100249.34;;;19.05;96.37
34034;BME280;63481;52.588;22.472;2023-06-22T02:22:39;100247.15;;;19.01;96.42
34034;BME280;63481;52.588;22.472;2023-06-22T02:23:11;100251.95;;;18.98;96.57
34034;BME280;63481;52.588;22.472;2023-06-22T02:23:43;100252.39;;;18.92;96.86
34034;BME280;63481;52.588;22.472;2023-06-22T02:24:16;100249.38;;;18.94;97.16
34034;BME280;63481;52.588;22.472;2023-06-22T02:24:51;100253.34;;;18.95;97.30
34034;BME280;63481;52.588;22.472;2023-06-22T02:25:25;100249.45;;;18.96;97.39
34034;BME280;63481;52.588;22.472;2023-06-22T02:25:57;100252.92;;;18.97;97.67
34034;BME280;63481;52.588;22.472;2023-06-22T02:26:30;100248.84;;;18.94;97.53
34034;BME280;63481;52.588;22.472;2023-06-22T02:27:04;100249.75;;;18.92;97.76
34034;BME280;63481;52.588;22.472;2023-06-22T02:27:38;100252.75;;;18.89;98.01
34034;BME280;63481;52.588;22.472;2023-06-22T02:28:13;100252.48;;;18.90;97.90
34034;BME280;63481;52.588;22.472;2023-06-22T02:28:45;100250.34;;;18.92;97.95
34034;BME280;63481;52.588;22.472;2023-06-22T02:29:17;100248.62;;;18.92;97.76
34034;BME280;63481;52.588;22.472;2023-06-22T02:29:50;100247.27;;;18.93;97.75
34034;BME280;63481;52.588;22.472;2023-06-22T02:30:22;100246.54;;;18.90;97.86
34034;BME280;63481;52.588;22.472;2023-06-22T02:30:54;100246.54;;;18.89;98.13
34034;BME280;63481;52.588;22.472;2023-06-22T02:31:27;100245.20;;;18.90;98.02
34034;BME280;63481;52.588;22.472;2023-06-22T02:32:02;100245.13;;;18.89;98.19
34034;BME280;63481;52.588;22.472;2023-06-22T02:32:36;100246.07;;;18.91;98.13
34034;BME280;63481;52.588;22.472;2023-06-22T02:33:08;100245.35;;;18.89;98.09
34034;BME280;63481;52.588;22.472;2023-06-22T02:33:40;100247.06;;;18.86;98.12
34034;BME280;63481;52.588;22.472;2023-06-22T02:34:13;100246.70;;;18.82;98.29
34034;BME280;63481;52.588;22.472;2023-06-22T02:34:50;100245.90;;;18.84;98.44
34034;BME280;63481;52.588;22.472;2023-06-22T02:35:22;100243.23;;;18.87;98.43
34034;BME280;63481;52.588;22.472;2023-06-22T02:35:55;100243.13;;;18.88;98.24
34034;BME280;63481;52.588;22.472;2023-06-22T02:36:28;100248.73;;;18.86;98.35
34034;BME280;63481;52.588;22.472;2023-06-22T02:37:02;100245.38;;;18.85;98.43
34034;BME280;63481;52.588;22.472;2023-06-22T02:37:36;100246.92;;;18.81;98.54
34034;BME280;63481;52.588;22.472;2023-06-22T02:38:13;100244.88;;;18.83;98.42
34034;BME280;63481;52.588;22.472;2023-06-22T02:38:46;100247.62;;;18.87;98.43
34034;BME280;63481;52.588;22.472;2023-06-22T02:39:24;100246.27;;;18.88;98.58
34034;BME280;63481;52.588;22.472;2023-06-22T02:39:56;100241.38;;;18.85;98.62
34034;BME280;63481;52.588;22.472;2023-06-22T02:40:29;100240.95;;;18.85;98.57
34034;BME280;63481;52.588;22.472;2023-06-22T02:41:02;100241.69;;;18.83;98.64
34034;BME280;63481;52.588;22.472;2023-06-22T02:41:34;100241.97;;;18.85;98.86
34034;BME280;63481;52.588;22.472;2023-06-22T02:42:07;100238.90;;;18.86;98.96
34034;BME280;63481;52.588;22.472;2023-06-22T02:42:39;100239.83;;;18.86;98.70
34034;BME280;63481;52.588;22.472;2023-06-22T02:43:12;100238.67;;;18.84;98.88
34034;BME280;63481;52.588;22.472;2023-06-22T02:43:45;100233.52;;;18.82;99.03
34034;BME280;63481;52.588;22.472;2023-06-22T02:44:18;100236.38;;;18.81;99.07
34034;BME280;63481;52.588;22.472;2023-06-22T02:44:50;100236.81;;;18.81;99.08
34034;BME280;63481;52.588;22.472;2023-06-22T02:45:22;100234.81;;;18.81;98.96
34034;BME280;63481;52.588;22.472;2023-06-22T02:45:55;100232.99;;;18.84;98.92
34034;BME280;63481;52.588;22.472;2023-06-22T02:46:27;100231.77;;;18.85;98.83
34034;BME280;63481;52.588;22.472;2023-06-22T02:46:59;100232.91;;;18.88;98.58
34034;BME280;63481;52.588;22.472;2023-06-22T02:47:32;100230.86;;;18.90;98.52
34034;BME280;63481;52.588;22.472;2023-06-22T02:48:04;100232.15;;;18.89;98.36
34034;BME280;63481;52.588;22.472;2023-06-22T02:48:37;100227.96;;;18.91;98.29
34034;BME280;63481;52.588;22.472;2023-06-22T02:49:12;100228.68;;;18.93;98.27
34034;BME280;63481;52.588;22.472;2023-06-22T02:49:44;100226.90;;;18.94;98.20
34034;BME280;63481;52.588;22.472;2023-06-22T02:50:18;100228.68;;;18.94;98.19
34034;BME280;63481;52.588;22.472;2023-06-22T02:50:50;100229.06;;;18.97;98.03
34034;BME280;63481;52.588;22.472;2023-06-22T02:51:26;100228.33;;;18.99;97.97
34034;BME280;63481;52.588;22.472;2023-06-22T02:51:58;100232.34;;;19.01;97.94
34034;BME280;63481;52.588;22.472;2023-06-22T02:52:30;100233.09;;;19.01;98.01
34034;BME280;63481;52.588;22.472;2023-06-22T02:53:03;100233.14;;;18.99;97.80
34034;BME280;63481;52.588;22.472;2023-06-22T02:53:37;100234.48;;;18.98;97.95
34034;BME280;63481;52.588;22.472;2023-06-22T02:54:09;100234.27;;;19.00;97.86
34034;BME280;63481;52.588;22.472;2023-06-22T02:54:42;100233.95;;;19.00;97.72
34034;BME280;63481;52.588;22.472;2023-06-22T02:55:17;100232.77;;;18.98;97.74
34034;BME280;63481;52.588;22.472;2023-06-22T02:55:55;100233.05;;;19.03;97.27
34034;BME280;63481;52.588;22.472;2023-06-22T02:56:28;100231.77;;;19.05;97.38
34034;BME280;63481;52.588;22.472;2023-06-22T02:57:04;100233.94;;;19.07;97.24
34034;BME280;63481;52.588;22.472;2023-06-22T02:57:37;100231.84;;;19.07;97.11
34034;BME280;63481;52.588;22.472;2023-06-22T02:58:09;100230.64;;;19.06;97.17
34034;BME280;63481;52.588;22.472;2023-06-22T02:58:42;100232.08;;;19.01;97.63
34034;BME280;63481;52.588;22.472;2023-06-22T02:59:16;100234.67;;;19.01;97.73
34034;BME280;63481;52.588;22.472;2023-06-22T02:59:48;100234.41;;;19.03;97.48
34034;BME280;63481;52.588;22.472;2023-06-22T03:00:20;100230.03;;;19.02;97.45
34034;BME280;63481;52.588;22.472;2023-06-22T03:00:54;100233.17;;;19.05;97.42
34034;BME280;63481;52.588;22.472;2023-06-22T03:01:27;100233.35;;;19.08;97.42
34034;BME280;63481;52.588;22.472;2023-06-22T03:02:00;100234.02;;;19.09;97.09
34034;BME280;63481;52.588;22.472;2023-06-22T03:02:34;100234.83;;;19.10;96.99
34034;BME280;63481;52.588;22.472;2023-06-22T03:03:06;100237.54;;;19.12;96.80